Time;durP1;ratioP1;P1;durP2;ratioP2;P2;SDS_P1;SDS_P2;PMS_P1;PMS_P2;Temp;Humidity;BMP_temperature;BMP_pressure;BME280_temperature;BME280_humidity;BME280_pressure;Samples;Min_cycle;Max_cycle;Signal;HPM_P1;HPM_P2
2023/04/14 00:00:39;;;;;;;6.10;2.05;;;8.20;99.90;;;;;;5011054;28;20033;-87
2023/04/14 00:03:05;;;;;;;6.07;2.20;;;8.20;99.90;;;;;;5009140;28;20018;-87
2023/04/14 00:05:31;;;;;;;5.30;1.75;;;8.20;99.90;;;;;;5028439;28;20046;-88
2023/04/14 00:07:57;;;;;;;9.40;3.72;;;8.20;99.90;;;;;;5009136;28;20029;-87
2023/04/14 00:10:23;;;;;;;12.55;4.13;;;8.20;99.90;;;;;;5008491;28;20052;-90
2023/04/14 00:12:49;;;;;;;12.65;3.58;;;8.10;99.90;;;;;;5009622;28;20037;-88
2023/04/14 00:15:15;;;;;;;7.55;3.17;;;8.20;99.90;;;;;;5022686;28;20029;-89
2023/04/14 00:17:41;;;;;;;7.50;2.90;;;8.20;99.90;;;;;;5005759;28;20065;-89
2023/04/14 00:20:07;;;;;;;9.77;2.85;;;8.10;99.90;;;;;;5013688;28;20025;-89
2023/04/14 00:22:33;;;;;;;11.77;2.22;;;8.10;99.90;;;;;;5012642;28;20025;-90
2023/04/14 00:25:00;;;;;;;8.55;2.20;;;8.00;99.90;;;;;;5009919;28;20033;-89
2023/04/14 00:27:25;;;;;;;7.70;2.25;;;8.00;99.90;;;;;;5007751;28;20029;-90
2023/04/14 00:29:51;;;;;;;9.13;2.30;;;7.90;99.90;;;;;;5013143;28;21459;-89
2023/04/14 00:32:17;;;;;;;3.67;2.10;;;7.90;99.90;;;;;;5005407;28;20447;-89
2023/04/14 00:34:42;;;;;;;6.82;2.35;;;7.90;99.90;;;;;;5009805;28;20116;-89
2023/04/14 00:37:08;;;;;;;8.25;2.47;;;7.90;99.90;;;;;;5004758;28;20283;-88
2023/04/14 00:39:34;;;;;;;7.53;2.22;;;7.80;99.90;;;;;;5019778;28;20018;-88
2023/04/14 00:42:03;;;;;;;7.78;2.05;;;7.80;99.90;;;;;;5001685;28;20025;-89
2023/04/14 00:44:29;;;;;;;6.97;2.17;;;7.70;99.90;;;;;;5003454;28;20072;-88
2023/04/14 00:46:55;;;;;;;5.72;2.17;;;7.70;99.90;;;;;;5017378;28;20028;-89
2023/04/14 00:49:21;;;;;;;4.72;1.92;;;7.70;99.90;;;;;;5019531;28;20040;-89
2023/04/14 00:51:48;;;;;;;5.50;2.30;;;7.70;99.90;;;;;;5020523;28;20029;-89
2023/04/14 00:54:18;;;;;;;6.97;2.50;;;7.60;99.90;;;;;;5009858;28;20433;-88
2023/04/14 00:56:45;;;;;;;11.40;2.45;;;7.60;99.90;;;;;;4998385;28;20026;-88
2023/04/14 00:59:12;;;;;;;4.85;2.00;;;7.60;99.90;;;;;;5002266;28;20469;-89
2023/04/14 01:01:39;;;;;;;13.20;2.33;;;7.50;99.90;;;;;;5009534;28;20021;-90
2023/04/14 01:04:05;;;;;;;7.28;2.22;;;7.50;99.90;;;;;;5003698;28;20029;-89
2023/04/14 01:06:31;;;;;;;7.43;1.98;;;7.40;99.90;;;;;;5003959;28;20041;-89
2023/04/14 01:08:58;;;;;;;7.55;2.17;;;7.40;99.90;;;;;;5003034;28;20517;-89
2023/04/14 01:11:30;;;;;;;11.85;2.20;;;7.40;99.90;;;;;;5019638;28;20022;-89
2023/04/14 01:14:26;;;;;;;7.30;2.00;;;7.40;99.90;;;;;;5004560;28;20461;-89
2023/04/14 01:16:55;;;;;;;11.30;2.47;;;7.30;99.90;;;;;;5004947;28;20096;-88
2023/04/14 01:19:35;;;;;;;8.18;2.67;;;7.30;99.90;;;;;;4998399;28;20029;-89
2023/04/14 01:22:05;;;;;;;7.28;2.67;;;7.30;99.90;;;;;;5019528;28;20047;-88
2023/04/14 01:24:56;;;;;;;9.40;2.25;;;7.20;99.90;;;;;;4995464;28;20018;-89
2023/04/14 01:27:58;;;;;;;5.65;2.00;;;7.30;99.90;;;;;;5019602;28;20029;-88
2023/04/14 01:30:24;;;;;;;3.47;2.35;;;7.20;99.90;;;;;;5019775;28;20026;-89
2023/04/14 01:32:55;;;;;;;10.25;2.65;;;7.20;99.90;;;;;;5003256;28;20020;-88
2023/04/14 01:35:37;;;;;;;7.75;2.28;;;7.20;99.90;;;;;;5019501;28;20083;-89
2023/04/14 01:38:16;;;;;;;4.60;2.13;;;7.20;99.90;;;;;;5002599;28;20022;-88
2023/04/14 01:40:49;;;;;;;9.73;2.17;;;7.10;99.90;;;;;;5002989;28;20607;-89
2023/04/14 01:43:16;;;;;;;5.43;2.13;;;6.90;99.90;;;;;;5020020;28;20516;-88
2023/04/14 01:45:47;;;;;;;10.93;2.28;;;6.80;99.90;;;;;;5022661;28;20034;-89
2023/04/14 01:48:13;;;;;;;5.03;2.03;;;6.70;99.90;;;;;;5018613;28;20044;-88
2023/04/14 01:50:40;;;;;;;14.90;2.55;;;6.70;99.90;;;;;;5022267;28;20040;-89
2023/04/14 01:53:07;;;;;;;5.80;2.58;;;6.60;99.90;;;;;;5019564;28;20188;-90
2023/04/14 01:55:36;;;;;;;5.47;1.90;;;6.60;99.90;;;;;;5012629;28;20045;-89
2023/04/14 01:58:04;;;;;;;10.73;2.00;;;6.50;99.90;;;;;;5026846;28;20049;-89
2023/04/14 02:00:31;;;;;;;3.88;1.55;;;6.60;99.90;;;;;;5004396;28;20054;-90
2023/04/14 02:02:57;;;;;;;6.00;1.92;;;6.50;99.90;;;;;;5010552;28;20527;-89
2023/04/14 02:05:24;;;;;;;7.80;2.28;;;6.50;99.90;;;;;;5034223;28;20507;-89
2023/04/14 02:07:52;;;;;;;3.40;1.60;;;6.50;99.90;;;;;;5031094;28;20095;-89
2023/04/14 02:10:20;;;;;;;7.90;2.70;;;6.60;99.90;;;;;;5009661;28;20044;-89
2023/04/14 02:12:47;;;;;;;7.13;2.00;;;6.50;99.90;;;;;;5023563;28;20014;-90
2023/04/14 02:15:16;;;;;;;6.65;2.17;;;6.60;99.90;;;;;;5006789;28;20025;-89
2023/04/14 02:17:45;;;;;;;15.40;2.47;;;6.50;99.90;;;;;;5022499;28;20030;-88
2023/04/14 02:20:13;;;;;;;9.23;2.25;;;6.50;99.90;;;;;;5006769;28;20037;-90
2023/04/14 02:22:39;;;;;;;14.63;2.03;;;6.60;99.90;;;;;;5018753;28;20113;-88
2023/04/14 02:25:06;;;;;;;6.40;2.17;;;6.60;99.90;;;;;;5005865;28;20485;-89
2023/04/14 02:28:16;;;;;;;9.00;2.40;;;6.60;99.90;;;;;;5023849;28;20041;-89
2023/04/14 02:30:48;;;;;;;2.50;2.00;;;6.70;99.90;;;;;;4993484;28;20099;-89
2023/04/14 02:33:20;;;;;;;7.63;2.50;;;6.70;99.90;;;;;;5023019;28;20029;-89
2023/04/14 02:35:51;;;;;;;4.57;2.10;;;6.70;99.90;;;;;;5007605;28;20375;-90
2023/04/14 02:38:35;;;;;;;5.78;2.30;;;6.70;99.90;;;;;;5018988;28;20365;-89
2023/04/14 02:41:07;;;;;;;6.82;2.35;;;6.70;99.90;;;;;;5001281;28;20025;-89
2023/04/14 02:43:43;;;;;;;10.98;2.28;;;6.70;99.90;;;;;;4990150;28;20033;-90
2023/04/14 02:46:11;;;;;;;5.93;2.13;;;6.70;99.90;;;;;;5009720;28;20037;-88
2023/04/14 02:48:41;;;;;;;8.90;2.40;;;6.70;99.90;;;;;;5008653;28;20048;-90
2023/04/14 02:51:10;;;;;;;7.55;1.90;;;6.60;99.90;;;;;;5021033;28;20044;-86
2023/04/14 02:53:36;;;;;;;2.75;1.60;;;6.60;99.90;;;;;;5036474;28;20048;-87
2023/04/14 02:56:02;;;;;;;8.32;2.25;;;6.50;99.90;;;;;;5035254;28;20021;-88
2023/04/14 02:58:29;;;;;;;8.65;2.08;;;6.50;99.90;;;;;;5013868;28;20028;-89
2023/04/14 03:00:56;;;;;;;2.85;1.92;;;6.50;99.90;;;;;;5005675;28;20314;-89
2023/04/14 03:03:23;;;;;;;7.32;2.28;;;6.50;99.90;;;;;;5006064;28;20478;-89
2023/04/14 03:05:49;;;;;;;5.97;2.47;;;6.40;99.90;;;;;;5021596;28;20053;-87
2023/04/14 03:08:16;;;;;;;5.63;2.15;;;6.40;99.90;;;;;;5021839;28;20292;-87
2023/04/14 03:10:46;;;;;;;8.98;2.47;;;6.30;99.90;;;;;;5006930;28;20036;-89
2023/04/14 03:13:13;;;;;;;7.63;2.60;;;6.30;99.90;;;;;;5024310;28;20029;-89
2023/04/14 03:15:40;;;;;;;6.63;1.83;;;6.20;99.90;;;;;;5009771;28;20018;-88
2023/04/14 03:18:07;;;;;;;4.13;2.15;;;6.20;99.90;;;;;;5007769;28;20013;-89
2023/04/14 03:20:33;;;;;;;5.15;2.03;;;6.20;99.90;;;;;;5006250;28;20032;-89
2023/04/14 03:23:08;;;;;;;5.53;2.10;;;6.10;99.90;;;;;;5007091;28;20014;-89
2023/04/14 03:25:38;;;;;;;6.30;2.22;;;6.10;99.90;;;;;;5011132;28;20037;-89
2023/04/14 03:28:08;;;;;;;9.57;2.45;;;6.10;99.90;;;;;;5011992;28;20028;-89
2023/04/14 03:30:36;;;;;;;5.93;2.55;;;6.00;99.90;;;;;;5014095;28;20396;-89
2023/04/14 03:33:07;;;;;;;10.15;3.28;;;6.00;99.90;;;;;;5006149;28;20465;-89
2023/04/14 03:35:35;;;;;;;14.35;3.60;;;6.00;99.90;;;;;;5001528;28;20017;-88
2023/04/14 03:38:04;;;;;;;9.10;2.55;;;6.00;99.90;;;;;;5007673;28;20196;-89
2023/04/14 03:40:32;;;;;;;12.18;2.83;;;6.00;99.90;;;;;;5008196;28;20029;-88
2023/04/14 03:42:58;;;;;;;9.77;2.85;;;6.00;99.90;;;;;;5016141;28;20026;-88
2023/04/14 03:45:27;;;;;;;10.35;2.30;;;6.00;99.90;;;;;;5014951;28;20393;-88
2023/04/14 03:47:59;;;;;;;7.07;2.70;;;6.00;99.90;;;;;;5014555;28;20025;-89
2023/04/14 03:50:31;;;;;;;7.30;2.60;;;6.00;99.90;;;;;;5013171;28;20033;-88
2023/04/14 03:53:00;;;;;;;12.35;3.35;;;5.90;99.90;;;;;;5012450;28;20052;-90
2023/04/14 03:55:27;;;;;;;12.23;2.83;;;6.00;99.90;;;;;;5009363;28;20494;-87
2023/04/14 03:58:00;;;;;;;12.90;2.83;;;6.00;99.90;;;;;;5013980;28;20021;-88
2023/04/14 04:00:26;;;;;;;6.63;2.20;;;5.90;99.90;;;;;;5005423;28;20374;-89
2023/04/14 04:02:56;;;;;;;5.57;1.90;;;5.80;99.90;;;;;;5006343;28;20090;-89
2023/04/14 04:05:22;;;;;;;8.50;2.25;;;5.60;99.90;;;;;;5006147;28;20195;-89
2023/04/14 04:07:50;;;;;;;4.65;1.80;;;5.50;99.90;;;;;;5022679;28;20081;-89
2023/04/14 04:10:16;;;;;;;9.38;2.10;;;5.40;99.90;;;;;;5021978;28;20554;-89
2023/04/14 04:12:47;;;;;;;6.47;2.20;;;5.30;99.90;;;;;;5011830;28;20036;-89
2023/04/14 04:15:13;;;;;;;12.68;2.55;;;5.30;99.90;;;;;;5012005;28;20045;-89
2023/04/14 04:17:41;;;;;;;17.35;2.90;;;5.20;99.90;;;;;;5005601;28;20036;-89
2023/04/14 04:20:11;;;;;;;10.15;2.47;;;5.20;99.90;;;;;;5006671;28;20029;-89
2023/04/14 04:22:40;;;;;;;9.07;2.25;;;5.20;99.90;;;;;;5020725;28;20098;-89
2023/04/14 04:25:10;;;;;;;8.43;2.45;;;5.20;99.90;;;;;;5007204;28;20029;-90
2023/04/14 04:27:36;;;;;;;13.77;3.08;;;5.30;99.90;;;;;;5017141;28;20018;-89
2023/04/14 04:30:06;;;;;;;6.65;2.50;;;5.30;99.90;;;;;;5006210;28;20386;-89
2023/04/14 04:32:32;;;;;;;5.65;2.72;;;5.30;99.90;;;;;;5004307;28;20168;-88
2023/04/14 04:35:01;;;;;;;9.27;2.72;;;5.40;99.90;;;;;;5005020;28;20156;-89
2023/04/14 04:37:28;;;;;;;5.65;2.38;;;5.40;99.90;;;;;;5007076;28;20391;-89
2023/04/14 04:39:57;;;;;;;9.63;2.70;;;5.40;99.90;;;;;;5019336;28;20053;-89
2023/04/14 04:42:22;;;;;;;5.53;2.22;;;5.40;99.90;;;;;;5005965;28;20021;-88
2023/04/14 04:44:48;;;;;;;11.70;3.00;;;5.40;99.90;;;;;;5022388;28;20533;-89
2023/04/14 04:47:16;;;;;;;6.70;2.55;;;5.40;99.90;;;;;;5003255;28;20617;-90
2023/04/14 04:49:42;;;;;;;12.27;2.83;;;5.40;99.90;;;;;;5006300;28;20130;-89
2023/04/14 04:52:07;;;;;;;9.65;3.25;;;5.40;99.90;;;;;;5006324;28;20124;-89
2023/04/14 04:54:34;;;;;;;8.20;2.80;;;5.40;99.90;;;;;;5004235;28;20040;-88
2023/04/14 04:57:00;;;;;;;19.42;3.45;;;5.30;99.90;;;;;;5022469;28;20123;-89
2023/04/14 04:59:25;;;;;;;9.18;2.90;;;5.30;99.90;;;;;;5011823;28;20478;-90
2023/04/14 05:01:51;;;;;;;10.93;3.40;;;5.30;99.90;;;;;;5008750;28;20021;-90
2023/04/14 05:04:17;;;;;;;8.68;3.00;;;5.30;99.90;;;;;;5000919;28;20397;-90
2023/04/14 05:06:42;;;;;;;8.98;3.30;;;5.40;99.90;;;;;;5011084;28;20492;-88
2023/04/14 05:09:08;;;;;;;13.73;4.03;;;5.40;99.90;;;;;;5012035;28;20061;-89
2023/04/14 05:11:34;;;;;;;7.20;3.15;;;5.50;99.90;;;;;;5010944;28;20116;-89
2023/04/14 05:14:01;;;;;;;11.60;3.25;;;5.50;99.90;;;;;;5010657;28;20033;-89
2023/04/14 05:16:29;;;;;;;8.50;2.85;;;5.60;99.90;;;;;;5005378;28;20108;-88
2023/04/14 05:18:55;;;;;;;9.98;3.00;;;5.60;99.90;;;;;;5003338;28;20113;-90
2023/04/14 05:21:21;;;;;;;9.98;3.72;;;5.70;99.90;;;;;;5012666;28;20177;-90
2023/04/14 05:23:47;;;;;;;12.48;3.50;;;5.80;99.90;;;;;;5012367;28;20022;-89
2023/04/14 05:26:13;;;;;;;9.75;3.38;;;5.80;99.90;;;;;;5012349;28;20041;-90
2023/04/14 05:28:42;;;;;;;6.95;3.20;;;5.90;99.90;;;;;;5021962;28;20065;-90
2023/04/14 05:31:10;;;;;;;10.18;3.40;;;6.00;99.90;;;;;;5019724;28;20042;-90
2023/04/14 05:33:36;;;;;;;9.18;3.08;;;6.10;99.90;;;;;;5002542;28;20029;-89
2023/04/14 05:36:01;;;;;;;9.55;2.88;;;6.10;99.90;;;;;;5003953;28;20034;-90
2023/04/14 05:38:27;;;;;;;9.88;3.75;;;6.20;99.90;;;;;;5013248;28;20378;-90
2023/04/14 05:40:53;;;;;;;13.52;3.75;;;6.10;99.90;;;;;;5009315;28;20224;-89
2023/04/14 05:43:21;;;;;;;10.45;3.55;;;6.10;99.90;;;;;;5007293;28;20034;-89
2023/04/14 05:45:50;;;;;;;11.55;3.40;;;6.10;99.90;;;;;;5023902;28;20313;-89
2023/04/14 05:48:16;;;;;;;13.13;3.50;;;6.10;99.90;;;;;;5024408;28;20053;-89
2023/04/14 05:50:42;;;;;;;18.25;3.85;;;6.20;99.90;;;;;;5025291;28;20250;-89
2023/04/14 05:53:07;;;;;;;6.07;3.33;;;6.30;99.90;;;;;;5025045;28;20026;-89
2023/04/14 05:55:33;;;;;;;12.30;3.85;;;6.30;99.90;;;;;;5020844;28;20022;-89
2023/04/14 05:57:59;;;;;;;9.13;3.65;;;6.30;99.90;;;;;;5022798;28;20025;-88
2023/04/14 06:00:25;;;;;;;17.45;4.07;;;6.40;99.90;;;;;;5020234;28;20029;-88
2023/04/14 06:02:51;;;;;;;13.13;3.83;;;6.50;99.90;;;;;;5023913;28;20080;-87
2023/04/14 06:05:17;;;;;;;11.82;3.80;;;6.50;99.90;;;;;;5016002;28;20061;-87
2023/04/14 06:07:43;;;;;;;14.57;4.97;;;6.60;99.90;;;;;;5007227;28;20026;-88
2023/04/14 06:10:09;;;;;;;17.58;4.82;;;6.70;99.90;;;;;;5023744;28;20448;-88
2023/04/14 06:12:36;;;;;;;12.77;4.43;;;6.70;99.90;;;;;;5015289;28;20026;-88
2023/04/14 06:15:04;;;;;;;20.42;4.95;;;6.80;99.90;;;;;;5019062;28;20418;-88
2023/04/14 06:17:29;;;;;;;17.33;4.25;;;6.90;99.90;;;;;;5014738;28;20033;-88
2023/04/14 06:19:56;;;;;;;14.05;4.25;;;7.00;99.90;;;;;;5032091;28;20105;-88
2023/04/14 06:22:28;;;;;;;16.25;4.90;;;7.20;99.90;;;;;;5023233;28;20041;-88
2023/04/14 06:24:56;;;;;;;17.10;5.17;;;7.30;99.90;;;;;;5009820;28;20547;-88
2023/04/14 06:27:22;;;;;;;15.68;4.75;;;7.50;99.90;;;;;;5013488;28;20029;-89
2023/04/14 06:29:48;;;;;;;11.68;4.22;;;7.50;99.90;;;;;;5022428;28;20076;-88
2023/04/14 06:32:13;;;;;;;13.70;4.03;;;7.60;99.90;;;;;;5024474;28;20470;-88
2023/04/14 06:34:39;;;;;;;14.25;4.13;;;7.60;99.90;;;;;;5011254;28;20692;-89
2023/04/14 06:37:05;;;;;;;11.88;4.90;;;7.60;99.90;;;;;;5008459;28;20029;-89
2023/04/14 06:39:33;;;;;;;17.35;4.00;;;7.80;99.90;;;;;;5006663;28;20516;-91
2023/04/14 06:41:59;;;;;;;8.88;4.25;;;7.80;99.90;;;;;;5006999;28;20022;-89
2023/04/14 06:44:25;;;;;;;15.25;4.20;;;7.90;99.90;;;;;;5011017;28;20034;-89
2023/04/14 06:46:50;;;;;;;13.57;4.90;;;8.10;99.90;;;;;;5014394;28;20041;-91
2023/04/14 06:49:18;;;;;;;10.85;3.97;;;8.20;99.90;;;;;;5035599;28;20021;-91
2023/04/14 06:51:44;;;;;;;12.55;4.40;;;8.30;99.90;;;;;;5029592;28;20041;-91
2023/04/14 06:54:10;;;;;;;17.92;4.57;;;8.50;99.90;;;;;;5037505;28;20042;-90
2023/04/14 06:56:35;;;;;;;14.45;5.10;;;8.50;99.90;;;;;;5035003;28;20033;-91
2023/04/14 06:59:01;;;;;;;17.20;4.88;;;8.60;99.90;;;;;;5010134;28;20031;-90
2023/04/14 07:01:27;;;;;;;18.30;4.68;;;8.70;99.90;;;;;;5006252;28;20033;-90
2023/04/14 07:03:52;;;;;;;14.95;4.90;;;8.90;99.90;;;;;;5005917;28;20028;-90
2023/04/14 07:06:18;;;;;;;19.00;5.20;;;9.00;99.90;;;;;;4999420;28;20045;-92
2023/04/14 07:08:45;;;;;;;20.90;5.63;;;9.00;99.90;;;;;;5011269;28;20112;-92
2023/04/14 07:11:11;;;;;;;13.77;5.22;;;9.10;99.90;;;;;;5007457;28;20564;-91
2023/04/14 07:13:40;;;;;;;24.15;7.10;;;9.10;99.90;;;;;;5010167;28;20120;-86
2023/04/14 07:16:07;;;;;;;17.20;5.63;;;9.30;99.90;;;;;;5004404;28;20025;-85
2023/04/14 07:18:33;;;;;;;12.98;4.72;;;9.40;99.90;;;;;;5008236;28;20105;-92
2023/04/14 07:21:00;;;;;;;9.90;4.05;;;9.50;99.90;;;;;;5020355;28;20021;-92
2023/04/14 07:23:26;;;;;;;11.48;3.70;;;9.50;99.90;;;;;;5025897;28;20040;-91
2023/04/14 07:25:57;;;;;;;11.05;3.47;;;9.60;99.90;;;;;;5046514;28;20053;-90
2023/04/14 07:28:23;;;;;;;24.92;3.90;;;9.60;99.90;;;;;;5016377;28;20116;-89
2023/04/14 07:30:50;;;;;;;11.32;3.50;;;9.70;99.90;;;;;;5006322;28;20081;-92
2023/04/14 07:33:21;;;;;;;8.50;3.65;;;9.70;99.90;;;;;;5017506;28;20022;-91
2023/04/14 07:35:51;;;;;;;10.13;4.00;;;9.80;99.90;;;;;;5009435;28;20393;-90
2023/04/14 07:38:16;;;;;;;13.60;3.65;;;9.80;99.90;;;;;;5012175;28;20022;-89
2023/04/14 07:40:42;;;;;;;17.80;4.22;;;9.90;99.90;;;;;;5005349;28;20377;-92
2023/04/14 07:43:08;;;;;;;8.77;3.88;;;10.10;99.90;;;;;;5007516;28;20130;-90
2023/04/14 07:45:34;;;;;;;10.02;3.53;;;10.20;99.90;;;;;;5006128;28;20121;-89
2023/04/14 07:48:00;;;;;;;10.93;4.18;;;10.30;99.90;;;;;;4998113;28;20439;-91
2023/04/14 07:50:26;;;;;;;22.08;4.53;;;10.30;99.90;;;;;;5014474;28;20373;-90
2023/04/14 07:52:51;;;;;;;11.07;3.78;;;10.30;99.90;;;;;;5005335;28;20071;-87
2023/04/14 07:55:17;;;;;;;13.27;4.13;;;10.50;99.90;;;;;;5013669;28;20020;-91
2023/04/14 07:57:43;;;;;;;15.95;4.30;;;10.70;99.90;;;;;;5005489;28;20024;-91
2023/04/14 08:00:12;;;;;;;10.93;3.95;;;10.90;99.90;;;;;;5005818;28;20033;-90
2023/04/14 08:02:37;;;;;;;10.50;4.10;;;10.90;99.90;;;;;;5024026;28;20026;-87
2023/04/14 08:05:04;;;;;;;15.23;5.00;;;11.10;99.90;;;;;;5010762;28;20026;-91
2023/04/14 08:07:30;;;;;;;9.20;3.70;;;11.20;99.90;;;;;;5021770;28;20207;-89
2023/04/14 08:09:56;;;;;;;14.55;4.72;;;11.40;99.90;;;;;;5011084;28;20439;-88
2023/04/14 08:12:23;;;;;;;18.90;4.50;;;11.60;99.90;;;;;;5005759;28;21118;-87
2023/04/14 08:14:48;;;;;;;9.65;4.07;;;11.80;99.90;;;;;;5005066;28;20072;-87
2023/04/14 08:17:14;;;;;;;12.50;3.88;;;11.90;99.90;;;;;;5004434;28;20056;-87
2023/04/14 08:19:40;;;;;;;12.30;4.03;;;12.00;99.90;;;;;;5007142;28;20116;-87
2023/04/14 08:22:05;;;;;;;16.02;4.45;;;12.20;99.90;;;;;;5026031;28;20021;-87
2023/04/14 08:24:31;;;;;;;11.18;3.30;;;12.30;99.90;;;;;;5013864;28;20113;-87
2023/04/14 08:26:57;;;;;;;11.77;3.72;;;12.50;99.90;;;;;;5011985;28;20022;-87
2023/04/14 08:29:23;;;;;;;15.68;4.63;;;12.80;99.90;;;;;;5005547;28;20995;-87
2023/04/14 08:31:49;;;;;;;10.57;3.78;;;13.00;99.90;;;;;;5021411;28;20390;-87
2023/04/14 08:34:15;;;;;;;9.73;3.28;;;13.30;99.90;;;;;;5022727;28;20560;-87
2023/04/14 08:36:40;;;;;;;10.88;3.83;;;13.40;99.90;;;;;;5010015;28;20477;-88
2023/04/14 08:39:06;;;;;;;12.63;4.00;;;13.50;99.90;;;;;;5013825;28;20044;-89
2023/04/14 08:41:37;;;;;;;10.20;3.75;;;13.70;99.90;;;;;;5004574;28;20021;-89
2023/04/14 08:44:03;;;;;;;10.27;3.80;;;13.90;99.90;;;;;;5019569;28;20442;-89
2023/04/14 08:46:30;;;;;;;19.92;3.40;;;14.20;99.90;;;;;;5011157;28;20120;-88
2023/04/14 08:49:05;;;;;;;17.20;4.30;;;14.60;99.90;;;;;;4995202;28;20022;-88
2023/04/14 08:51:38;;;;;;;9.93;3.50;;;14.80;99.90;;;;;;5011306;28;20031;-86
2023/04/14 08:54:14;;;;;;;12.40;3.70;;;15.10;99.90;;;;;;4999131;28;20026;-87
2023/04/14 08:56:41;;;;;;;12.18;2.97;;;15.20;99.90;;;;;;5022560;28;20025;-89
2023/04/14 08:59:10;;;;;;;8.15;2.80;;;15.60;99.90;;;;;;5002829;28;20029;-87
2023/04/14 09:01:39;;;;;;;7.18;2.33;;;16.00;99.40;;;;;;5001671;28;20042;-87
2023/04/14 09:04:06;;;;;;;8.77;2.30;;;15.90;95.00;;;;;;5009860;28;20030;-86
2023/04/14 09:06:33;;;;;;;14.95;2.70;;;16.10;95.80;;;;;;5005245;28;20030;-85
2023/04/14 09:09:04;;;;;;;11.98;2.42;;;16.20;95.80;;;;;;5003735;28;20037;-85
2023/04/14 09:11:30;;;;;;;9.00;2.90;;;16.40;92.60;;;;;;5020319;28;20517;-86
2023/04/14 09:13:58;;;;;;;9.90;2.10;;;16.60;92.80;;;;;;5014459;28;20108;-86
2023/04/14 09:16:25;;;;;;;6.95;1.95;;;16.70;91.00;;;;;;5000574;28;20398;-87
2023/04/14 09:18:55;;;;;;;7.72;1.90;;;16.60;84.90;;;;;;5003558;28;20080;-87
2023/04/14 09:21:21;;;;;;;6.70;2.10;;;16.70;89.00;;;;;;5021276;28;20037;-87
2023/04/14 09:23:47;;;;;;;6.30;2.05;;;16.90;89.30;;;;;;5016279;28;20030;-86
2023/04/14 09:26:13;;;;;;;14.90;2.42;;;17.00;87.20;;;;;;5003389;28;20033;-86
2023/04/14 09:28:40;;;;;;;10.02;2.35;;;17.40;86.10;;;;;;5003354;28;20025;-85
2023/04/14 09:31:06;;;;;;;8.40;2.25;;;17.60;86.10;;;;;;5022208;28;20026;-87
2023/04/14 09:33:32;;;;;;;7.45;2.30;;;17.90;83.80;;;;;;5021203;28;20125;-87
2023/04/14 09:35:58;;;;;;;7.15;2.28;;;18.10;82.50;;;;;;5010352;28;20083;-87
2023/04/14 09:38:37;;;;;;;13.90;2.83;;;18.40;84.90;;;;;;5011137;28;20021;-87
2023/04/14 09:41:07;;;;;;;9.43;2.17;;;18.90;81.60;;;;;;5015585;28;20273;-87
2023/04/14 09:43:33;;;;;;;12.82;2.58;;;19.00;76.40;;;;;;5026305;28;20120;-86
2023/04/14 09:46:08;;;;;;;8.02;2.35;;;18.80;77.90;;;;;;5002259;28;20112;-88
2023/04/14 09:48:36;;;;;;;9.65;2.38;;;18.60;74.30;;;;;;5006813;28;20589;-86
2023/04/14 09:51:05;;;;;;;9.93;2.28;;;19.00;74.50;;;;;;5020003;28;20121;-89
2023/04/14 09:53:35;;;;;;;11.25;2.97;;;19.60;73.20;;;;;;5009417;28;20037;-86
2023/04/14 09:56:05;;;;;;;8.25;2.22;;;19.70;68.20;;;;;;5014716;28;20036;-87
2023/04/14 09:58:35;;;;;;;11.45;2.35;;;20.70;67.90;;;;;;5007197;28;20055;-87
2023/04/14 10:01:15;;;;;;;19.70;5.50;;;21.20;63.10;;;;;;4998678;28;20059;-87
2023/04/14 10:03:42;;;;;;;15.63;4.78;;;21.30;62.20;;;;;;5000909;28;20025;-87
2023/04/14 10:06:14;;;;;;;9.18;2.92;;;21.40;60.60;;;;;;5020870;28;20663;-87
2023/04/14 10:08:42;;;;;;;11.55;3.03;;;21.80;58.10;;;;;;5018143;28;20026;-85
2023/04/14 10:11:28;;;;;;;14.05;3.90;;;22.00;59.30;;;;;;5001669;28;20124;-85
2023/04/14 10:13:59;;;;;;;20.38;4.68;;;22.70;58.80;;;;;;4994936;28;20087;-85
2023/04/14 10:16:25;;;;;;;12.35;3.50;;;23.00;58.30;;;;;;4997683;28;20021;-85
2023/04/14 10:18:52;;;;;;;21.95;3.95;;;23.30;55.60;;;;;;5004272;28;20025;-84
2023/04/14 10:21:26;;;;;;;14.05;4.22;;;23.50;54.30;;;;;;4999803;28;20021;-84
2023/04/14 10:23:55;;;;;;;12.30;3.92;;;22.80;54.20;;;;;;5002713;28;20021;-85
2023/04/14 10:26:21;;;;;;;18.75;5.57;;;23.10;54.10;;;;;;5000966;28;20140;-86
2023/04/14 10:28:54;;;;;;;20.73;5.45;;;22.60;55.90;;;;;;5005781;28;20464;-86
2023/04/14 10:31:37;;;;;;;20.73;7.63;;;21.30;57.50;;;;;;4997826;28;20133;-85
2023/04/14 10:34:08;;;;;;;16.33;5.70;;;20.70;58.60;;;;;;5010518;28;20021;-87
2023/04/14 10:36:35;;;;;;;17.48;6.13;;;20.90;58.50;;;;;;5009438;28;20263;-85
2023/04/14 10:39:04;;;;;;;241.35;107.00;;;21.40;56.70;;;;;;5004995;28;20060;-86
2023/04/14 10:41:46;;;;;;;17.95;5.32;;;21.20;57.40;;;;;;5005932;28;20032;-85
2023/04/14 10:44:32;;;;;;;19.58;5.82;;;20.60;57.10;;;;;;5019596;28;20486;-85
2023/04/14 10:47:00;;;;;;;21.80;4.97;;;20.60;57.30;;;;;;5006557;28;20052;-86
2023/04/14 10:49:36;;;;;;;16.98;4.65;;;20.50;57.10;;;;;;5004307;28;20025;-86
2023/04/14 10:52:26;;;;;;;17.02;4.50;;;20.40;55.80;;;;;;5023683;28;20022;-85
2023/04/14 10:54:52;;;;;;;14.05;4.97;;;20.40;56.10;;;;;;5017737;28;20181;-85
2023/04/14 10:57:25;;;;;;;8.45;3.67;;;20.50;56.40;;;;;;5004768;28;20048;-87
2023/04/14 10:59:55;;;;;;;;;;;20.90;56.90;;;;;;5006286;28;20394;-86
2023/04/14 11:02:28;;;;;;;8.02;2.25;;;21.10;57.60;;;;;;4996438;28;20594;-85
2023/04/14 11:05:09;;;;;;;6.07;2.40;;;20.60;56.50;;;;;;4999613;28;20207;-83
2023/04/14 11:07:48;;;;;;;11.05;2.53;;;20.40;56.00;;;;;;5021308;28;20053;-83
2023/04/14 11:10:23;;;;;;;12.38;2.40;;;20.40;56.20;;;;;;5001481;28;20058;-83
2023/04/14 11:13:16;;;;;;;4.57;1.40;;;20.60;54.40;;;;;;5002423;28;20254;-82
2023/04/14 11:15:44;;;;;;;7.38;1.92;;;20.50;54.00;;;;;;5012725;28;20425;-83
2023/04/14 11:18:12;;;;;;;9.82;1.90;;;21.00;55.40;;;;;;5020941;28;20044;-83
2023/04/14 11:20:40;;;;;;;8.18;2.30;;;21.30;53.80;;;;;;5001398;28;20030;-83
2023/04/14 11:23:06;;;;;;;6.28;2.85;;;21.30;53.90;;;;;;5001932;28;20084;-85
2023/04/14 11:25:34;;;;;;;11.98;3.00;;;21.50;53.30;;;;;;5004715;28;20117;-84
2023/04/14 11:28:03;;;;;;;340.30;161.73;;;21.40;52.60;;;;;;5019482;28;20060;-88
2023/04/14 11:30:29;;;;;;;101.10;41.00;;;20.70;53.20;;;;;;4999181;28;20439;-87
2023/04/14 11:32:56;;;;;;;6.55;2.08;;;20.20;54.50;;;;;;5017786;28;20099;-86
2023/04/14 11:35:24;;;;;;;7.10;2.28;;;19.70;55.40;;;;;;5010815;28;20021;-86
2023/04/14 11:37:57;;;;;;;5.43;2.28;;;19.20;56.30;;;;;;5037844;28;20030;-86
2023/04/14 11:40:26;;;;;;;14.30;2.63;;;19.10;57.30;;;;;;5024141;28;20109;-84
2023/04/14 11:42:56;;;;;;;6.68;2.08;;;19.80;56.60;;;;;;5007019;28;20336;-86
2023/04/14 11:45:29;;;;;;;10.98;2.30;;;20.10;54.80;;;;;;5002167;28;20036;-86
2023/04/14 11:47:59;;;;;;;;;;;20.40;55.00;;;;;;5019007;28;20022;-83
2023/04/14 11:50:26;;;;;;;4.90;2.50;;;20.70;56.60;;;;;;5020813;28;19966;-85
2023/04/14 11:52:54;;;;;;;5.82;1.77;;;20.60;53.20;;;;;;4996750;28;20029;-86
2023/04/14 11:55:22;;;;;;;6.68;1.50;;;20.30;51.70;;;;;;5020499;28;20024;-86
2023/04/14 11:57:48;;;;;;;7.72;1.52;;;20.20;52.30;;;;;;5021569;28;20021;-86
2023/04/14 12:00:15;;;;;;;9.52;2.25;;;20.30;53.30;;;;;;5019870;28;20474;-86
2023/04/14 12:02:44;;;;;;;8.13;2.17;;;20.00;53.50;;;;;;5004375;28;20043;-86
2023/04/14 12:05:12;;;;;;;6.43;1.73;;;19.60;54.80;;;;;;5019708;28;21217;-85
2023/04/14 12:07:41;;;;;;;5.90;1.70;;;19.30;54.60;;;;;;5004882;28;20034;-86
2023/04/14 12:10:07;;;;;;;4.03;2.03;;;19.70;55.00;;;;;;5010381;28;20034;-87
2023/04/14 12:12:33;;;;;;;6.00;1.77;;;20.20;53.70;;;;;;4985661;28;20025;-86
2023/04/14 12:15:00;;;;;;;7.78;1.92;;;20.60;52.10;;;;;;5004784;28;20086;-86
2023/04/14 12:17:26;;;;;;;7.05;2.08;;;21.00;52.50;;;;;;5019577;28;20021;-86
2023/04/14 12:19:51;;;;;;;8.25;1.95;;;20.80;52.70;;;;;;5019369;28;20108;-85
2023/04/14 12:22:28;;;;;;;5.22;1.60;;;21.00;53.60;;;;;;5018413;28;20018;-85
2023/04/14 12:24:55;;;;;;;5.35;1.90;;;21.00;51.30;;;;;;5005057;28;20237;-86
2023/04/14 12:27:23;;;;;;;4.18;1.70;;;20.90;51.60;;;;;;5019404;28;20030;-86
2023/04/14 12:29:49;;;;;;;3.17;1.92;;;21.40;51.90;;;;;;4997020;28;20026;-86
2023/04/14 12:32:16;;;;;;;5.95;1.92;;;21.40;50.90;;;;;;4999577;28;20036;-86
2023/04/14 12:34:56;;;;;;;4.20;1.45;;;21.20;51.20;;;;;;5002013;28;20281;-86
2023/04/14 12:37:26;;;;;;;6.65;1.55;;;21.30;52.50;;;;;;5000198;28;20052;-86
2023/04/14 12:39:57;;;;;;;5.65;1.63;;;22.00;50.70;;;;;;5022086;28;20178;-85
2023/04/14 12:42:29;;;;;;;4.43;1.85;;;22.40;49.80;;;;;;5021026;28;20051;-86
2023/04/14 12:44:56;;;;;;;5.20;1.90;;;22.50;49.40;;;;;;5003946;28;20103;-85
2023/04/14 12:47:33;;;;;;;11.20;1.80;;;22.50;47.30;;;;;;5000691;28;20372;-87
2023/04/14 12:50:01;;;;;;;6.63;2.03;;;22.40;46.80;;;;;;5000642;28;20017;-86
2023/04/14 12:52:35;;;;;;;7.80;1.58;;;22.50;48.80;;;;;;5001238;28;20045;-85
2023/04/14 12:55:03;;;;;;;5.78;1.98;;;22.70;46.40;;;;;;5006474;28;20123;-86